Time;durP1;ratioP1;P1;durP2;ratioP2;P2;SDS_P1;SDS_P2;PMS_P1;PMS_P2;Temp;Humidity;BMP_temperature;BMP_pressure;BME280_temperature;BME280_humidity;BME280_pressure;Samples;Min_cycle;Max_cycle;Signal;HPM_P1;HPM_P2
2022/06/16 00:00:04;;;;;;;3.42;2.95;;;;;;;19.60;38.87;95678.13;4936826;29;20197;-81
2022/06/16 00:02:29;;;;;;;5.45;2.80;;;;;;;19.60;39.00;95680.75;4936920;29;20619;-81
2022/06/16 00:04:54;;;;;;;3.50;2.63;;;;;;;19.67;39.17;95681.59;4920059;29;20232;-81
2022/06/16 00:07:19;;;;;;;3.95;2.83;;;;;;;19.63;39.51;95672.47;4917214;29;20182;-81
2022/06/16 00:09:45;;;;;;;3.83;3.05;;;;;;;19.63;39.63;95667.22;4917413;29;20256;-81
2022/06/16 00:12:10;;;;;;;2.97;2.67;;;;;;;19.58;39.82;95667.81;4934803;29;20174;-81
2022/06/16 00:14:36;;;;;;;5.50;3.33;;;;;;;19.61;39.70;95656.84;4930241;29;20193;-80
2022/06/16 00:17:01;;;;;;;6.43;3.38;;;;;;;19.58;39.88;95659.09;4917389;29;20170;-80
2022/06/16 00:19:26;;;;;;;3.95;2.78;;;;;;;19.62;39.55;95655.06;4917309;29;20213;-81
2022/06/16 00:21:52;;;;;;;5.05;3.22;;;;;;;19.61;39.32;95650.78;4917249;29;20264;-80
2022/06/16 00:24:17;;;;;;;3.28;2.97;;;;;;;19.63;39.48;95656.69;4916656;29;20232;-80
2022/06/16 00:26:42;;;;;;;3.60;2.75;;;;;;;19.55;39.41;95655.00;4917048;29;20193;-80
2022/06/16 00:29:08;;;;;;;3.72;2.83;;;;;;;19.55;39.74;95647.09;4901303;29;20260;-81
2022/06/16 00:31:34;;;;;;;4.05;2.83;;;;;;;19.48;39.98;95655.00;4917214;29;20175;-81
2022/06/16 00:33:59;;;;;;;3.53;3.22;;;;;;;19.50;39.51;95647.69;4900781;29;20249;-81
2022/06/16 00:36:24;;;;;;;4.28;2.83;;;;;;;19.44;39.60;95652.97;4917166;29;20186;-81
2022/06/16 00:38:50;;;;;;;5.65;3.20;;;;;;;19.43;40.05;95646.88;4917441;29;20201;-81
2022/06/16 00:41:15;;;;;;;3.63;2.92;;;;;;;19.41;39.89;95642.81;4901545;29;20205;-80
2022/06/16 00:43:40;;;;;;;3.90;3.08;;;;;;;19.41;40.12;95643.63;4932741;29;20206;-81
2022/06/16 00:46:18;;;;;;;3.47;2.90;;;;;;;19.49;39.64;95635.53;4900768;29;20283;-81
2022/06/16 00:48:56;;;;;;;4.38;2.60;;;;;;;19.30;40.02;95643.41;4901145;29;20244;-81
2022/06/16 00:51:37;;;;;;;4.25;3.20;;;;;;;19.32;40.48;95644.81;4916763;29;20189;-80
2022/06/16 00:54:13;;;;;;;4.05;2.80;;;;;;;19.28;39.95;95646.25;4900637;29;20194;-80
2022/06/16 00:56:39;;;;;;;5.13;3.10;;;;;;;19.33;39.79;95640.38;4916701;29;20189;-81
2022/06/16 00:59:05;;;;;;;3.55;3.00;;;;;;;19.38;39.77;95644.03;4916626;29;20963;-80
2022/06/16 01:01:34;;;;;;;3.13;2.80;;;;;;;19.42;39.85;95637.34;4916654;29;20210;-80
2022/06/16 01:06:45;;;;;;;5.65;3.17;;;;;;;19.33;40.05;95635.09;4933853;29;20696;-80
2022/06/16 01:09:27;;;;;;;5.03;2.70;;;;;;;19.31;40.12;95627.41;4900678;29;20670;-80
2022/06/16 01:15:20;;;;;;;4.05;2.90;;;;;;;19.39;40.00;95635.13;4933383;29;20229;-80
2022/06/16 01:18:15;;;;;;;5.20;3.13;;;;;;;19.40;39.81;95639.38;4933489;29;20668;-80
2022/06/16 01:20:47;;;;;;;4.85;2.85;;;;;;;19.39;39.92;95636.94;4900646;29;20659;-80
2022/06/16 01:23:53;;;;;;;4.45;3.15;;;;;;;19.39;39.72;95629.84;4925364;29;20194;-81
2022/06/16 01:26:37;;;;;;;4.90;2.70;;;;;;;19.45;39.78;95625.63;4916680;29;20192;-80
2022/06/16 01:29:26;;;;;;;5.82;3.03;;;;;;;19.40;39.62;95620.94;4916575;29;20202;-81
2022/06/16 01:32:11;;;;;;;4.22;2.97;;;;;;;19.40;39.89;95622.78;4917700;29;20192;-81
2022/06/16 01:35:02;;;;;;;6.32;3.20;;;;;;;19.42;39.65;95616.28;4919709;29;20199;-80
2022/06/16 01:37:30;;;;;;;3.42;2.80;;;;;;;19.36;39.97;95611.84;4937420;29;20186;-81
2022/06/16 01:40:12;;;;;;;5.43;2.90;;;;;;;19.44;39.43;95611.66;4904191;29;20210;-81
2022/06/16 01:42:45;;;;;;;5.03;3.10;;;;;;;19.37;39.91;95612.66;4903098;29;20205;-80
2022/06/16 01:45:18;;;;;;;5.00;3.30;;;;;;;19.44;39.73;95621.38;4919695;29;20317;-81
2022/06/16 01:47:47;;;;;;;5.40;3.00;;;;;;;19.50;39.57;95621.34;4904194;29;20237;-81
2022/06/16 01:50:22;;;;;;;3.60;2.78;;;;;;;19.47;39.80;95610.44;4903888;29;20245;-80
2022/06/16 01:52:55;;;;;;;3.10;2.75;;;;;;;19.44;39.54;95609.00;4919745;29;20189;-80
2022/06/16 01:55:23;;;;;;;4.15;3.15;;;;;;;19.44;39.60;95608.22;4919208;29;20746;-81
2022/06/16 01:57:53;;;;;;;4.97;3.35;;;;;;;19.36;40.04;95606.56;4903917;29;20218;-81
2022/06/16 02:00:24;;;;;;;3.92;2.92;;;;;;;19.44;39.75;95609.00;4903921;29;20178;-81
2022/06/16 02:03:16;;;;;;;3.17;2.88;;;;;;;19.55;39.91;95601.53;4903815;29;20209;-81
2022/06/16 02:05:46;;;;;;;4.75;2.95;;;;;;;19.54;39.75;95605.97;4932828;29;20194;-81
2022/06/16 02:08:15;;;;;;;3.75;2.88;;;;;;;19.52;40.26;95598.28;4903785;29;20202;-80
2022/06/16 02:10:44;;;;;;;17.08;4.28;;;;;;;19.49;40.09;95597.88;4919366;29;20626;-80
2022/06/16 02:13:12;;;;;;;4.32;2.80;;;;;;;19.51;39.92;95599.28;4903379;29;20189;-81
2022/06/16 02:16:00;;;;;;;3.58;2.75;;;;;;;19.57;39.60;95600.31;4918644;29;20551;-81
2022/06/16 02:18:29;;;;;;;4.10;3.25;;;;;;;19.57;39.66;95604.78;4903459;29;20233;-80
2022/06/16 02:21:13;;;;;;;4.53;3.15;;;;;;;19.57;39.90;95599.53;4919409;29;20229;-81
2022/06/16 02:23:39;;;;;;;5.13;2.97;;;;;;;19.50;40.00;95594.22;4935937;29;20530;-80
2022/06/16 02:26:04;;;;;;;5.85;3.22;;;;;;;19.48;39.93;95588.34;4902903;29;20182;-81
2022/06/16 02:28:29;;;;;;;3.40;3.00;;;;;;;19.50;39.91;95592.38;4934704;29;20737;-81
2022/06/16 02:31:09;;;;;;;3.53;2.88;;;;;;;19.40;40.59;95593.81;4919270;29;20182;-81
2022/06/16 02:34:12;;;;;;;3.30;2.90;;;;;;;19.42;40.21;95582.03;4918647;29;20178;-81
2022/06/16 02:36:43;;;;;;;4.43;3.15;;;;;;;19.40;39.73;95576.19;4936234;29;20180;-81
2022/06/16 02:39:21;;;;;;;4.07;3.33;;;;;;;19.46;39.78;95580.66;4935901;29;20205;-81
2022/06/16 02:42:20;;;;;;;5.55;3.88;;;;;;;19.45;40.19;95576.41;4918580;29;20666;-81
2022/06/16 02:44:54;;;;;;;3.78;3.33;;;;;;;19.41;40.49;95575.16;4934411;29;20182;-81
2022/06/16 02:47:47;;;;;;;3.58;2.90;;;;;;;19.41;40.29;95576.97;4935816;29;20185;-81
2022/06/16 02:50:35;;;;;;;4.05;2.80;;;;;;;19.36;40.71;95582.06;4918740;29;20256;-81
2022/06/16 02:53:45;;;;;;;6.53;2.97;;;;;;;19.31;40.81;95580.03;4918789;29;20217;-81
2022/06/16 02:56:18;;;;;;;2.95;2.67;;;;;;;19.20;41.32;95578.78;4918641;29;20189;-81
2022/06/16 02:58:44;;;;;;;3.35;3.05;;;;;;;19.18;41.53;95572.94;4918448;29;20741;-81
2022/06/16 03:01:10;;;;;;;3.88;3.00;;;;;;;19.16;41.51;95574.94;4902675;29;20725;-81
2022/06/16 03:03:37;;;;;;;4.43;3.30;;;;;;;19.23;41.36;95574.94;4918118;29;20478;-80
2022/06/16 03:06:03;;;;;;;4.00;2.90;;;;;;;19.22;41.67;95574.13;4918278;29;20182;-81
2022/06/16 03:08:30;;;;;;;3.92;3.00;;;;;;;19.24;41.30;95576.56;4902677;29;20249;-81
2022/06/16 03:10:58;;;;;;;3.67;3.17;;;;;;;19.25;41.50;95573.72;4918632;29;20280;-81
2022/06/16 03:13:26;;;;;;;3.33;3.03;;;;;;;19.23;41.62;95580.22;4933915;29;20487;-81
2022/06/16 03:15:53;;;;;;;6.10;3.10;;;;;;;19.25;41.53;95580.81;4917411;29;20562;-81
2022/06/16 03:18:20;;;;;;;3.80;3.15;;;;;;;19.25;40.98;95586.88;4934045;29;20194;-81
2022/06/16 03:20:48;;;;;;;5.10;3.03;;;;;;;19.26;41.04;95579.81;4902352;29;20210;-81
2022/06/16 03:23:13;;;;;;;3.45;2.63;;;;;;;19.34;41.10;95576.97;4902426;29;20182;-80
2022/06/16 03:25:40;;;;;;;3.83;3.15;;;;;;;19.35;41.11;95583.88;4917521;29;20273;-80
2022/06/16 03:28:05;;;;;;;5.25;3.00;;;;;;;19.38;40.83;95594.00;4902361;29;20221;-81
2022/06/16 03:30:31;;;;;;;4.25;3.40;;;;;;;19.46;40.08;95596.44;4917871;29;20178;-80
2022/06/16 03:32:57;;;;;;;4.35;2.92;;;;;;;19.41;40.41;95593.59;4917993;29;20179;-81
2022/06/16 03:35:22;;;;;;;4.43;3.00;;;;;;;19.48;40.00;95598.88;4934648;29;20178;-80
2022/06/16 03:37:47;;;;;;;3.40;2.90;;;;;;;19.57;39.72;95600.31;4918008;29;20596;-80
2022/06/16 03:40:13;;;;;;;4.03;2.65;;;;;;;19.53;40.05;95610.44;4917511;29;20244;-81
2022/06/16 03:42:39;;;;;;;3.20;2.78;;;;;;;19.65;39.47;95608.03;4916645;29;20214;-80
2022/06/16 03:45:05;;;;;;;6.28;3.00;;;;;;;19.76;38.98;95607.41;4901190;29;20728;-81
2022/06/16 03:47:30;;;;;;;5.18;2.95;;;;;;;19.80;39.03;95610.47;4901897;29;20182;-81
2022/06/16 03:49:55;;;;;;;4.03;3.33;;;;;;;19.94;38.45;95612.06;4917291;29;20565;-81
2022/06/16 03:52:21;;;;;;;4.30;2.42;;;;;;;20.16;37.94;95614.50;4933173;29;20189;-81
2022/06/16 03:54:46;;;;;;;2.65;2.42;;;;;;;20.51;36.86;95628.25;4916818;29;20186;-81
2022/06/16 03:57:11;;;;;;;4.95;2.80;;;;;;;20.73;36.35;95616.38;4917311;29;20339;-81
2022/06/16 03:59:37;;;;;;;3.92;2.88;;;;;;;20.95;36.08;95619.56;4917316;29;20707;-81
2022/06/16 04:02:02;;;;;;;3.25;2.72;;;;;;;20.80;36.86;95622.47;4901497;29;20698;-81
2022/06/16 04:04:28;;;;;;;5.00;2.78;;;;;;;20.78;36.84;95627.16;4916806;29;20186;-81
2022/06/16 04:06:54;;;;;;;7.15;3.78;;;;;;;20.49;37.56;95635.53;4901957;29;20185;-81
2022/06/16 04:09:19;;;;;;;4.22;2.60;;;;;;;20.20;37.98;95639.44;4901342;29;20236;-80
2022/06/16 04:11:44;;;;;;;2.75;2.53;;;;;;;20.19;38.39;95632.53;4917550;29;20205;-81
2022/06/16 04:14:12;;;;;;;3.22;2.92;;;;;;;20.13;38.95;95642.06;4933687;29;20185;-81
2022/06/16 04:16:40;;;;;;;4.25;2.67;;;;;;;20.17;38.60;95647.75;4901519;29;20194;-81
2022/06/16 04:19:07;;;;;;;4.03;2.70;;;;;;;20.18;39.59;95644.91;4917365;29;20376;-80
2022/06/16 04:21:32;;;;;;;4.07;3.00;;;;;;;20.19;39.17;95638.63;4916959;29;20210;-81
2022/06/16 04:23:57;;;;;;;3.22;2.80;;;;;;;21.32;36.93;95641.75;4933664;29;20650;-81
2022/06/16 04:26:23;;;;;;;4.00;2.83;;;;;;;21.70;36.57;95639.03;4901861;29;20669;-81
2022/06/16 04:28:48;;;;;;;3.25;2.92;;;;;;;22.33;35.67;95649.53;4917245;29;20202;-81
2022/06/16 04:31:14;;;;;;;4.85;2.90;;;;;;;22.07;36.40;95660.34;4917112;29;20182;-80
2022/06/16 04:33:40;;;;;;;5.32;2.80;;;;;;;22.96;34.73;95659.06;4916913;29;20182;-80
2022/06/16 04:36:06;;;;;;;4.78;2.92;;;;;;;24.48;32.56;95656.88;4932950;29;20188;-81
2022/06/16 04:38:31;;;;;;;5.68;2.90;;;;;;;26.08;30.21;95654.38;4917035;29;20197;-81
2022/06/16 04:40:58;;;;;;;3.50;2.80;;;;;;;26.73;28.33;95661.75;4917425;29;20206;-81
2022/06/16 04:43:24;;;;;;;3.60;3.28;;;;;;;27.81;27.08;95662.75;4933813;29;20321;-81
2022/06/16 04:45:49;;;;;;;4.07;3.00;;;;;;;29.32;25.53;95673.91;4901129;29;20272;-81
2022/06/16 04:48:14;;;;;;;4.55;2.38;;;;;;;30.38;23.80;95675.16;4917384;29;20569;-81
2022/06/16 04:50:40;;;;;;;7.70;3.03;;;;;;;29.80;24.88;95663.91;4933061;29;20343;-81
2022/06/16 04:53:06;;;;;;;4.22;2.90;;;;;;;31.14;23.08;95675.03;4933991;29;20170;-81
2022/06/16 04:55:31;;;;;;;3.72;2.90;;;;;;;31.63;22.77;95678.84;4917203;29;20205;-82
2022/06/16 04:57:57;;;;;;;3.08;2.70;;;;;;;31.54;21.75;95673.25;4934732;29;20598;-81
2022/06/16 05:00:22;;;;;;;3.22;2.92;;;;;;;31.48;21.71;95683.22;4934714;29;20254;-81
2022/06/16 05:02:48;;;;;;;3.67;2.83;;;;;;;32.80;20.46;95686.84;4933181;29;20237;-81
2022/06/16 05:05:13;;;;;;;4.55;3.15;;;;;;;31.07;22.64;95690.59;4901162;29;20534;-81
2022/06/16 05:07:39;;;;;;;4.53;2.83;;;;;;;28.98;24.96;95684.22;4919759;29;20208;-81
2022/06/16 05:10:05;;;;;;;4.03;3.00;;;;;;;27.09;27.18;95673.69;4936724;29;20198;-81
2022/06/16 05:12:30;;;;;;;3.33;3.03;;;;;;;26.54;28.43;95667.34;4921391;29;20229;-81
2022/06/16 05:14:55;;;;;;;4.30;2.90;;;;;;;25.76;31.30;95672.72;4920641;29;20174;-81
2022/06/16 05:17:21;;;;;;;5.93;2.92;;;;;;;25.34;31.41;95672.97;4920804;29;20698;-81
2022/06/16 05:19:46;;;;;;;5.93;3.00;;;;;;;25.81;31.24;95678.13;4920622;29;20206;-81
2022/06/16 05:22:12;;;;;;;3.33;2.70;;;;;;;25.12;32.37;95668.34;4920668;29;20685;-81
2022/06/16 05:24:37;;;;;;;6.32;3.17;;;;;;;24.59;33.16;95671.16;4919933;29;20812;-81
2022/06/16 05:27:04;;;;;;;4.20;3.20;;;;;;;24.36;34.35;95673.81;4920886;29;20233;-81
2022/06/16 05:29:30;;;;;;;4.25;2.67;;;;;;;24.32;36.03;95683.28;4920411;29;20198;-81
2022/06/16 05:31:56;;;;;;;5.10;3.28;;;;;;;25.14;34.30;95687.50;4921039;29;20177;-81
2022/06/16 05:34:21;;;;;;;5.07;3.40;;;;;;;24.83;34.86;95695.84;4935717;29;20189;-81
2022/06/16 05:36:47;;;;;;;4.03;3.10;;;;;;;24.64;35.84;95689.03;4920421;29;20180;-81
2022/06/16 05:39:12;;;;;;;4.85;3.20;;;;;;;24.29;36.88;95690.66;4937491;29;20194;-81
2022/06/16 05:41:40;;;;;;;3.35;2.70;;;;;;;25.38;34.13;95698.88;4920054;29;20690;-81
2022/06/16 05:44:06;;;;;;;3.13;2.92;;;;;;;25.62;33.75;95698.75;4918907;29;20274;-81
2022/06/16 05:46:31;;;;;;;3.50;3.15;;;;;;;25.43;33.10;95709.59;4904657;29;20213;-81
2022/06/16 05:48:57;;;;;;;3.53;2.88;;;;;;;26.57;30.94;95708.66;4919920;29;20280;-81
2022/06/16 05:51:23;;;;;;;3.30;3.10;;;;;;;28.61;27.79;95702.91;4920299;29;20193;-81
2022/06/16 05:53:49;;;;;;;5.30;2.65;;;;;;;29.70;25.33;95710.19;4935802;29;20209;-80
2022/06/16 05:56:15;;;;;;;3.47;3.17;;;;;;;29.49;25.75;95711.16;4923185;29;20181;-80
2022/06/16 05:58:40;;;;;;;3.60;3.00;;;;;;;27.90;28.21;95711.94;4938276;29;20548;-80
2022/06/16 06:01:06;;;;;;;3.35;3.03;;;;;;;27.75;28.93;95717.16;4922791;29;20206;-80
2022/06/16 06:03:31;;;;;;;3.30;3.00;;;;;;;29.51;26.19;95711.75;4906850;29;20178;-80
2022/06/16 06:05:59;;;;;;;2.95;2.65;;;;;;;29.05;25.96;95708.81;4921940;29;20241;-80
2022/06/16 06:16:42;;;;;;;3.40;3.03;;;;;;;31.16;23.90;95699.69;4934459;29;20189;-79
2022/06/16 06:19:23;;;;;;;4.32;3.15;;;;;;;32.00;22.96;95703.34;4930044;29;20206;-83
2022/06/16 06:21:59;;;;;;;2.92;2.65;;;;;;;32.07;22.81;95708.38;4909653;29;20217;-82
2022/06/16 06:24:35;;;;;;;3.20;2.85;;;;;;;30.71;25.12;95709.47;4922593;29;20178;-83
2022/06/16 06:27:04;;;;;;;4.32;3.25;;;;;;;29.48;25.77;95715.69;4907104;29;20270;-81
2022/06/16 06:29:29;;;;;;;4.38;3.00;;;;;;;29.27;26.66;95712.16;4905490;29;20256;-84
2022/06/16 06:31:54;;;;;;;5.28;3.20;;;;;;;29.13;27.13;95715.53;4922446;29;20178;-83
2022/06/16 06:34:20;;;;;;;3.63;3.10;;;;;;;29.94;26.06;95723.84;4937741;29;20188;-83
2022/06/16 06:36:45;;;;;;;4.18;3.78;;;;;;;30.97;23.85;95718.25;4939344;29;20188;-79
2022/06/16 06:39:12;;;;;;;3.58;3.28;;;;;;;32.53;21.96;95727.69;4945009;29;20257;-79
2022/06/16 06:41:37;;;;;;;5.85;3.20;;;;;;;32.16;22.70;95751.56;4932958;29;20201;-78
2022/06/16 06:44:05;;;;;;;3.13;2.83;;;;;;;31.93;23.60;95747.72;4947848;29;20189;-78
2022/06/16 06:46:30;;;;;;;6.15;3.30;;;;;;;32.37;23.24;95761.16;4931173;29;20272;-79
2022/06/16 06:48:55;;;;;;;3.95;3.58;;;;;;;31.74;23.14;95764.44;4946322;29;20231;-78
2022/06/16 06:51:21;;;;;;;3.80;3.35;;;;;;;31.58;23.84;95769.06;4961153;29;20211;-80
2022/06/16 06:53:46;;;;;;;4.18;3.78;;;;;;;31.01;25.15;95772.16;4941734;29;20212;-79
2022/06/16 06:56:15;;;;;;;5.80;3.58;;;;;;;30.78;25.43;95776.22;4942600;29;20240;-80
2022/06/16 06:58:41;;;;;;;4.93;3.65;;;;;;;29.83;27.36;95776.56;4943313;29;20239;-79
2022/06/16 07:01:06;;;;;;;4.43;3.90;;;;;;;29.39;28.85;95775.31;4961120;28;20189;-79
2022/06/16 07:03:32;;;;;;;4.47;4.07;;;;;;;29.76;28.50;95776.00;4928388;29;20173;-79
2022/06/16 07:06:00;;;;;;;6.25;3.83;;;;;;;30.34;28.33;95789.31;4942841;29;20182;-79
2022/06/16 07:08:26;;;;;;;6.93;4.43;;;;;;;30.28;27.90;95793.84;4943907;29;20228;-79
2022/06/16 07:10:51;;;;;;;9.35;3.97;;;;;;;30.47;28.13;95794.13;4926566;29;20177;-79
2022/06/16 07:13:16;;;;;;;6.43;4.43;;;;;;;30.63;27.66;95793.06;4945155;29;20316;-79
2022/06/16 07:15:42;;;;;;;7.85;4.60;;;;;;;30.45;27.29;95791.72;4943106;29;20173;-79
2022/06/16 07:18:08;;;;;;;7.75;4.57;;;;;;;30.30;28.32;95798.94;4927610;29;20185;-80
2022/06/16 07:20:33;;;;;;;5.30;4.10;;;;;;;30.32;28.09;95802.16;4942790;29;20184;-79
2022/06/16 07:22:59;;;;;;;4.90;4.13;;;;;;;29.77;29.25;95807.09;4926797;29;20241;-79
2022/06/16 07:25:24;;;;;;;7.55;4.60;;;;;;;29.34;30.11;95817.03;4942647;29;20193;-79
2022/06/16 07:27:50;;;;;;;5.00;4.25;;;;;;;29.38;29.94;95811.97;4943014;29;20188;-79
2022/06/16 07:30:17;;;;;;;5.65;4.00;;;;;;;29.12;30.87;95815.53;4942335;28;20204;-80
2022/06/16 07:32:44;;;;;;;6.30;4.63;;;;;;;29.37;30.18;95826.41;4926289;29;20185;-79
2022/06/16 07:35:12;;;;;;;7.85;4.32;;;;;;;29.74;29.42;95818.31;4925926;29;20204;-78
2022/06/16 07:37:38;;;;;;;7.05;3.85;;;;;;;30.18;28.86;95832.13;4923012;29;20186;-79
2022/06/16 07:40:04;;;;;;;5.03;3.90;;;;;;;29.76;29.51;95831.41;4924185;29;20300;-79
2022/06/16 07:42:30;;;;;;;5.70;4.13;;;;;;;28.75;30.91;95833.16;4920341;29;20233;-78
2022/06/16 07:44:58;;;;;;;5.25;4.28;;;;;;;29.34;30.21;95834.94;4919852;29;20182;-78
2022/06/16 07:47:23;;;;;;;6.28;4.15;;;;;;;29.02;30.38;95843.81;4918989;29;20182;-79
2022/06/16 07:49:49;;;;;;;8.75;4.47;;;;;;;28.97;30.62;95849.13;4919720;29;20213;-78
2022/06/16 07:52:15;;;;;;;4.80;4.03;;;;;;;28.69;30.36;95852.06;4936464;29;20185;-79
2022/06/16 07:54:40;;;;;;;5.07;3.92;;;;;;;28.27;30.72;95847.41;4919067;29;20240;-80
2022/06/16 07:57:05;;;;;;;6.05;4.70;;;;;;;27.16;32.52;95854.78;4919920;29;20174;-79
2022/06/16 07:59:31;;;;;;;5.88;3.88;;;;;;;27.94;32.21;95856.38;4907690;29;20284;-80
2022/06/16 08:01:56;;;;;;;7.13;4.00;;;;;;;28.41;30.85;95858.50;4923276;29;20213;-80
2022/06/16 08:04:21;;;;;;;5.38;3.90;;;;;;;28.22;31.58;95861.50;4930555;28;20185;-80
2022/06/16 08:06:47;;;;;;;8.15;4.18;;;;;;;28.34;30.30;95864.03;4950923;28;20212;-80
2022/06/16 08:09:12;;;;;;;7.10;4.22;;;;;;;27.63;31.90;95861.28;4922981;29;20233;-78
2022/06/16 08:14:22;;;;;;;6.20;3.72;;;;;;;27.57;31.79;95866.81;4940454;29;20218;-78
2022/06/16 08:16:48;;;;;;;6.65;3.83;;;;;;;27.45;32.56;95871.44;4942817;29;20650;-78
2022/06/16 08:19:13;;;;;;;8.43;3.95;;;;;;;27.50;32.28;95868.84;4909104;29;20269;-78
2022/06/16 08:21:38;;;;;;;4.10;3.70;;;;;;;27.85;32.37;95871.22;4942255;28;20232;-78
2022/06/16 08:24:06;;;;;;;7.40;3.60;;;;;;;28.00;31.13;95868.69;4949554;28;20169;-78
2022/06/16 08:26:31;;;;;;;5.25;3.53;;;;;;;28.01;31.61;95870.34;4962914;28;20168;-78
2022/06/16 08:28:57;;;;;;;5.63;3.97;;;;;;;27.71;31.54;95873.44;4963522;28;20207;-79
2022/06/16 08:31:23;;;;;;;7.85;3.60;;;;;;;27.97;31.46;95879.88;4942309;28;20179;-80
2022/06/16 08:33:49;;;;;;;4.68;3.22;;;;;;;28.13;32.72;95887.03;4940815;28;20275;-82
2022/06/16 08:36:14;;;;;;;5.05;4.38;;;;;;;27.40;30.65;95885.53;4939527;28;20184;-82
2022/06/16 08:38:39;;;;;;;6.05;3.63;;;;;;;27.57;30.69;95878.31;4943808;28;20204;-81
2022/06/16 08:41:12;;;;;;;4.55;3.28;;;;;;;27.45;30.80;95882.09;4949544;28;20271;-78
2022/06/16 08:44:04;;;;;;;5.53;3.28;;;;;;;27.23;31.98;95885.53;4949721;28;20187;-79
2022/06/16 08:46:35;;;;;;;3.63;3.30;;;;;;;27.21;32.22;95882.31;4950047;29;20192;-78
2022/06/16 08:49:07;;;;;;;4.40;3.30;;;;;;;26.81;32.38;95882.44;4934346;29;20260;-78
2022/06/16 08:51:41;;;;;;;3.90;3.58;;;;;;;27.33;32.84;95896.34;4932597;29;20204;-78
2022/06/16 08:54:39;;;;;;;5.15;3.38;;;;;;;26.94;33.31;95891.97;4964113;28;20180;-79
2022/06/16 08:57:17;;;;;;;10.60;3.90;;;;;;;27.04;33.28;95892.19;4965147;28;20177;-78
2022/06/16 08:59:54;;;;;;;5.60;3.28;;;;;;;26.99;33.83;95897.38;4946899;29;20193;-79
2022/06/16 09:02:28;;;;;;;8.65;3.65;;;;;;;27.23;33.47;95906.06;4944658;29;20200;-78
2022/06/16 09:05:08;;;;;;;9.48;3.90;;;;;;;27.41;33.20;95899.66;4947764;29;20192;-79
2022/06/16 09:08:07;;;;;;;7.40;3.80;;;;;;;27.33;33.67;95893.69;4948466;29;20192;-79
2022/06/16 09:10:49;;;;;;;3.88;3.47;;;;;;;27.00;34.20;95902.47;4931887;28;20177;-79
2022/06/16 09:13:40;;;;;;;5.95;3.90;;;;;;;27.44;33.39;95901.84;4931903;29;20199;-79
2022/06/16 09:16:28;;;;;;;10.00;4.00;;;;;;;27.74;33.06;95906.81;4947460;29;20607;-78
2022/06/16 09:19:13;;;;;;;6.25;3.80;;;;;;;27.60;31.66;95906.34;4965339;29;20193;-78
2022/06/16 09:21:44;;;;;;;6.68;4.13;;;;;;;27.80;31.82;95901.28;4947722;29;20205;-79
2022/06/16 09:24:35;;;;;;;15.68;4.60;;;;;;;27.42;32.53;95901.28;4947160;29;20189;-79
2022/06/16 09:27:09;;;;;;;10.60;4.53;;;;;;;27.26;32.18;95902.91;4947461;29;20543;-78
2022/06/16 09:29:43;;;;;;;4.25;3.60;;;;;;;26.81;33.21;95911.75;4947677;29;20300;-79
2022/06/16 09:32:14;;;;;;;8.43;4.22;;;;;;;27.03;32.81;95906.53;4947422;29;20204;-79
2022/06/16 09:35:00;;;;;;;4.38;3.63;;;;;;;26.55;32.18;95910.50;4946150;29;20184;-78
2022/06/16 09:37:41;;;;;;;6.90;3.55;;;;;;;26.81;32.80;95906.41;4947179;29;20177;-79
2022/06/16 09:40:15;;;;;;;7.35;3.78;;;;;;;26.57;34.29;95908.41;4947352;29;20189;-78
2022/06/16 09:43:06;;;;;;;13.82;4.03;;;;;;;26.84;33.56;95908.59;4947142;29;20260;-79
2022/06/16 09:45:35;;;;;;;6.97;4.10;;;;;;;27.01;33.80;95901.41;4937353;29;20212;-78
2022/06/16 09:48:15;;;;;;;5.43;4.00;;;;;;;27.15;33.55;95915.28;4929876;28;20231;-78
2022/06/16 09:50:48;;;;;;;5.97;3.70;;;;;;;26.90;33.71;95910.31;4925675;29;20215;-78
2022/06/16 09:53:27;;;;;;;7.63;3.70;;;;;;;26.27;34.41;95929.91;4927189;29;20351;-81
2022/06/16 09:56:03;;;;;;;14.85;3.70;;;;;;;26.92;34.11;95926.84;4947036;29;20185;-80
2022/06/16 09:58:52;;;;;;;5.22;3.50;;;;;;;27.07;33.45;95924.47;4947407;29;20334;-79
2022/06/16 10:01:21;;;;;;;6.90;3.63;;;;;;;27.41;33.78;95926.34;4929939;29;20209;-80
2022/06/16 10:03:49;;;;;;;6.25;3.80;;;;;;;27.40;34.43;95922.84;4944279;29;20718;-81
2022/06/16 10:06:53;;;;;;;8.52;3.95;;;;;;;27.48;33.46;95929.66;4964100;28;20716;-80
2022/06/16 10:09:23;;;;;;;6.45;3.72;;;;;;;27.32;34.18;95936.59;4965467;29;20240;-81
2022/06/16 10:11:57;;;;;;;5.50;4.10;;;;;;;26.66;34.74;95956.75;4936028;29;20181;-81
2022/06/16 10:14:38;;;;;;;4.88;3.90;;;;;;;26.72;35.05;95948.63;4966380;28;20186;-83
2022/06/16 10:17:09;;;;;;;7.20;3.67;;;;;;;26.78;35.25;95950.34;4934821;29;20200;-81
2022/06/16 10:19:41;;;;;;;6.50;3.63;;;;;;;26.73;35.49;95955.56;4932694;29;20208;-81
2022/06/16 10:22:07;;;;;;;4.38;3.90;;;;;;;26.49;35.47;95954.84;4946747;29;20252;-80
2022/06/16 10:24:39;;;;;;;5.45;3.80;;;;;;;26.99;35.36;95964.00;4946098;29;20186;-81
2022/06/16 10:27:04;;;;;;;10.35;3.90;;;;;;;26.73;35.03;95963.56;4946305;28;20184;-82
2022/06/16 10:29:32;;;;;;;4.80;3.50;;;;;;;27.26;35.51;95962.38;4961948;28;20213;-81
2022/06/16 10:31:59;;;;;;;10.48;4.00;;;;;;;27.44;35.15;95960.50;4947753;29;20173;-79
2022/06/16 10:34:32;;;;;;;7.88;3.95;;;;;;;27.64;34.91;95966.94;4946294;29;20236;-82
2022/06/16 10:37:00;;;;;;;9.40;3.65;;;;;;;27.61;34.72;95967.44;4965367;28;20192;-80
2022/06/16 10:39:56;;;;;;;10.75;3.63;;;;;;;27.58;33.50;95983.13;4946062;29;20235;-80
2022/06/16 10:42:28;;;;;;;6.88;3.90;;;;;;;27.55;33.38;95978.28;4946735;29;20235;-79
2022/06/16 10:44:57;;;;;;;6.03;3.45;;;;;;;27.65;33.79;95989.09;4948049;29;20177;-79
2022/06/16 10:47:53;;;;;;;5.82;3.15;;;;;;;27.86;32.54;95993.72;4947549;29;20174;-79
2022/06/16 10:50:29;;;;;;;10.75;3.42;;;;;;;27.44;34.34;95992.50;4939122;29;20219;-79
2022/06/16 10:53:25;;;;;;;7.50;3.40;;;;;;;27.63;33.51;95991.19;4965934;29;20177;-80
2022/06/16 10:55:55;;;;;;;11.63;3.90;;;;;;;27.47;33.94;95994.69;4964499;28;20244;-79
2022/06/16 10:58:30;;;;;;;7.45;3.55;;;;;;;27.55;34.25;96000.41;4964966;28;20318;-80
2022/06/16 11:01:16;;;;;;;13.00;3.60;;;;;;;27.21;34.12;95999.63;4931014;29;20187;-80
2022/06/16 11:03:46;;;;;;;6.00;3.67;;;;;;;27.37;34.99;96006.81;4945315;29;20244;-80
2022/06/16 11:06:14;;;;;;;6.85;3.17;;;;;;;27.73;34.17;96004.72;4944468;29;20182;-80
2022/06/16 11:08:44;;;;;;;4.03;3.70;;;;;;;27.80;34.16;96000.03;4945079;29;20193;-80
2022/06/16 11:11:11;;;;;;;13.35;3.60;;;;;;;27.76;33.42;96000.78;4929150;29;20188;-80
2022/06/16 11:13:38;;;;;;;5.80;3.75;;;;;;;27.81;33.18;96014.19;4944609;29;20216;-81
2022/06/16 11:16:10;;;;;;;5.57;3.58;;;;;;;27.54;33.91;96008.66;4946710;29;20184;-81
2022/06/16 11:18:37;;;;;;;17.95;4.18;;;;;;;27.61;33.55;96009.31;4928294;29;20677;-80
2022/06/16 11:21:14;;;;;;;5.07;3.35;;;;;;;28.00;32.54;96018.19;4944551;29;20716;-80
2022/06/16 11:23:48;;;;;;;4.70;3.10;;;;;;;27.73;31.94;96022.59;4928421;29;20255;-80
2022/06/16 11:26:16;;;;;;;7.97;3.80;;;;;;;27.59;32.92;96016.75;4927784;28;20193;-80
2022/06/16 11:28:45;;;;;;;8.07;3.47;;;;;;;27.32;33.00;96021.94;4961445;28;20579;-79
2022/06/16 11:31:16;;;;;;;6.05;3.63;;;;;;;27.80;33.83;96018.69;4928618;29;20181;-77
2022/06/16 11:37:00;;;;;;;7.95;3.85;;;;;;;28.04;33.95;96019.31;4945982;28;20560;-80
2022/06/16 11:39:51;;;;;;;5.88;3.50;;;;;;;28.29;32.93;96013.53;4944518;29;20301;-77
2022/06/16 11:42:20;;;;;;;4.85;3.22;;;;;;;28.23;31.91;96020.66;4945449;29;20628;-80
2022/06/16 11:45:07;;;;;;;4.60;3.60;;;;;;;28.19;32.00;96011.53;4926303;29;20732;-80
2022/06/16 11:47:45;;;;;;;4.22;3.40;;;;;;;28.39;31.73;96012.88;4928153;29;20193;-79
2022/06/16 11:50:38;;;;;;;6.32;3.63;;;;;;;27.74;32.91;96014.38;4943347;29;20209;-80
2022/06/16 11:53:25;;;;;;;8.18;3.95;;;;;;;27.91;32.54;96008.97;4962533;28;20209;-80
2022/06/16 11:55:56;;;;;;;5.82;3.72;;;;;;;27.76;32.87;96011.44;4944590;29;20700;-79
2022/06/16 11:58:30;;;;;;;10.02;4.28;;;;;;;27.04;33.52;96004.94;4945620;29;20205;-80
2022/06/16 12:01:21;;;;;;;14.23;3.63;;;;;;;27.22;33.83;96011.91;4962669;28;20182;-80
2022/06/16 12:04:07;;;;;;;9.27;3.97;;;;;;;28.04;31.48;96010.50;4951595;29;20205;-80
2022/06/16 12:06:54;;;;;;;6.47;4.00;;;;;;;27.90;32.81;96010.84;4942965;29;20201;-80
2022/06/16 12:09:38;;;;;;;5.22;3.42;;;;;;;27.93;31.52;96012.22;4960394;28;20268;-79
2022/06/16 12:12:13;;;;;;;10.60;3.28;;;;;;;28.28;30.31;96000.41;4943132;29;20176;-80